Scroll down
FLIGHT INFORMATION
British Airways

BAW2157

At Arrival Gate

EGKK
 TAPA
DATE: 2021-09-02
GATE: G5
GATE DEPARTURE: 09:00
TAKEOFF: 09:15
DATE: 2021-09-02
GATE:  -
LANDING: 17:04
GATE ARRIVAL: 17:08
FLIGHT DATA
Crew: 
Speed: 
900 kph
Altitude: 
38,028 ft
Stage Length: 
6,564.0 km
Block Time: 
8.1 hrs
Flight Time: 
7.8 hrs
Fuel Used: 
49,692 kg
Cleared Route: EGKK IMVUR VOUGA SAM NULGU ADKIK KOXOD JOZMA SOPTU UNPUP GAPLI OMOKO 4720N 4330N 4040N 3645N 3150N 2655N 1960N AMTTO ANU TAPA
TRACK DATA
50,000 ft 1,000 kts
AIRCRAFT INFO AND CUMULATIVE STATS
Aircraft Type: 
B772
Registration: 
SELCAL: 
JQKS
MSN/LN: 
29322 / 203
Operator: 
Total Flights: 
12
Total Block Time: 
58.9 hrs
Total Flight Time: 
55.7 hrs
Total Fuel Used: 
371,320 kg
DATALINK LOG | Newest first | Current as of: 2022-09-25 18:49:01
LABEL SEQUENCE CONTENT Dn/Up
5Z13542 SEP 21 17:13:07z / FLT DECK GOOD / ACF POS GOOD / GRND SERVICES GOOD / MAINT GOOD▼ Dn
QD095017:08 25▼ Dn
QC054717:04▼ Dn
2U5918TAPA 021600Z 10011KT 050V130 9999 FEW021 31/22 Q1016 NOSIG▲ Up
2S5942TAPA▼ Dn
GA4033ADVANCED GATE ASSIGNMENTS NOT YET AVAILABLE AT THIS AIRPORT▲ Up
GR4023TAPA 17:05 MAAS 00 YP/UM 00/00 WCHR/S/C 00/00/00 HI-VAL NO DIPL/VIP NO▼ Dn
2U3212TAPA 021500Z 09011KT 050V140 9999 SCT020 31/22 Q1016 NOSIG▲ Up
2S3216TAPA▼ Dn
5R32162655N 15:31z FL380 1960N 16:32z AMTTO M0.82 19.1 -54 / TAPA 16:57z▼ Dn
5R03493150N 14:42z FL380 2655N 15:31z 1960N M0.82 23.8 -54 / TAPA 16:58z▼ Dn
5U4409TAPA 021839Z 09009KT 9999 SCT020 31/22 Q1016▲ Up
5S4430TAPA▼ Dn
5R43293150N 14:42z FL380 2655N 15:31z 1960N M0.82 23.8 -54 / TAPA 16:58z▼ Dn
5R13004040N 13:12z FL379 3645N 13:53z 3150N M0.82 32.6 -54 331/47 TAPA 16:56z▼ Dn
5R12004330N 12:08z FL380 4040N 13:09z 3645N M0.82 39.1 -57 319/27 TAPA 16:54z▼ Dn
5R12024720N 11:03z FL380 4330N 12:05z 4040N M0.82 45.8 -55 278/22 TAPA 16:51z▼ Dn
UM795901CLX 0959 210902 CYQX CLRNCE 205 BAW2157 CLEARED TO TAPA VIA GAPLI OMOKO 47N020W 43N030W 40N040W 36N045W 31N050W 26N055W 19N060W FL360 M082 JQKS.▲ Up
UM255851REQUESTING OCEANIC CLRNC CT EGTT CS EP GAPLI FL 380 ETA 16:51 SPD M0.82▼ Dn
UM205558CLEARED TO FL 380▲ Up
DM65548REQUEST FL 380 DUE TO A/C PERF▼ Dn
QB161109:15▼ Dn
QA005609:00 134.7▼ Dn
5Z54502 SEP 21 08:54:41z / FLT DECK GOOD / ACF POS GOOD / GRND SERVICES GOOD / MAINT GOOD▼ Dn
2U4949EGKK 020820Z 04008KT 9999 FEW013 BKN032 15/13 Q1028▲ Up
2S4946EGKK▼ Dn
A34753CLEARED TO TAPA VIA IMVU1Z IMVUR N63 SAM N19 GAPLI OMOKO 47N020W 43N030W 40N040W 36N045W 31N050W 26N055W 19N060W AMTTO ANU. SQUAWK 2474.▲ Up
B34743EGKK TAPA BAW2157 G-VIIR ▼ Dn
Q04541[LINK ACK]▲ Up
Q04541[LINK TEST]▼ Dn


AIRCRAFT HISTORY
FLIGHT DATE FLIGHT NO. ORIGIN DESTINATION CLEARED ROUTE BLOCK TIME FLIGHT TIME FUEL USED PILOT
2021-09-06BAW2156TAPA EGKK TAPA ANU AMTTO 1960N 2455N 2752N 2950N 3940N 4330N 4620N OMOKO GUNSO GAPLI TESDO RIGDI SIDDI ORVUX DAWLY ELRIP OTMET EGKK7.8 hrs7.6 hrs104,470 lbAnton Vind
2021-09-04BAW2256TGPY TAPA TGPY EMKIS LIMBO ANU TAPA1 hrs0.9 hrs13,636 lbAnton Vind
2021-09-04BAW2157TAPA TGPY TAPA ANU LIMBO EMKIS DUSAL TGPY1.1 hrs0.9 hrs14,095 lbAnton Vind
2021-09-02BAW2157EGKK TAPA EGKK IMVUR VOUGA SAM NULGU ADKIK KOXOD JOZMA SOPTU UNPUP GAPLI OMOKO 4720N 4330N 4040N 3645N 3150N 2655N 1960N AMTTO ANU TAPA8.1 hrs7.8 hrs109,552 lbAnton Vind
2021-02-26BAW1622KTPA EGKK KTPA FINKI BAYPO ECAKE WILON SPRNG CAMJO HEPAR TEEEM RIELE PANDY MULLS HASET BLAMO TYI FKN SWL WARNN ZIZZI YAZUU EMJAY GEDIC RIFLE ACK KANNI SUPRY 4650N 4940N 5230N 5320N MALOT GISTI NORLA MERLY DIDEL FONZU ELRIP OTMET EGKK8.2 hrs8 hrs111,145 lb-HIDDEN-
2021-02-22BAW1603EGKK KTPA EGKK KKW07 KKW09 MID NOVMA NIBDA HAZEL SAM NULGU ADKIK HICAP MERLY MOPAT RESNO 5620N 5730N 5640N 5450N NEEKO ALLEX OWENZ DIW ILM METTA DADES KTPA9.5 hrs9.3 hrs133,923 lb-HIDDEN-
2021-02-21BAW236EGPF EGKK EGPF XEXUS ELBAN TRN35 NORBO ORVUL OSMEG RIPNO DCS SUBUK KEPAD TELBA VIDOK UMLUX PEPUL DISIT KIDLI MID TUFOZ HOLLY WILLO CF08R RW08R1.5 hrs1.2 hrs19,509 lb-HIDDEN-
2021-02-21BAW885EGKK EGPF EGKK KKW02 KKE09 KKE11 KKE15 SUNAV KKE35 KKN43 KKN48 LAM BPK POTON BEDFO EBOTO PIPIN LESTA EMBOR XAPOS BOLBI ULSAX POL NELSA RIBEL EGPF1.3 hrs1 hrs17,663 lb-HIDDEN-
2021-02-20BAW1622KTPA EGKK KTPA CAMJO HEPAR TEEEM RIELE PANDY MULLS HASET BLAMO TYI FKN SWL WARNN ZIZZI YAZUU EMJAY GEDIC RIFLE ACK KANNI SUPRY 4650N 4840N 4930N 5020N SOMAX ATSUR GAPLI TESDO RIGDI SIDDI ORVUX DAWLY ELRIP OTMET EGKK7.7 hrs7.5 hrs117,758 lb-HIDDEN-
2021-02-19BAW1623EGKK KTPA EGKK KKE05 KKN09 KKW19 IMVUR VOUGA SAM NULGU ADKIK HICAP MERLY MOPAT SUNOT 5820N 5930N 5840N 5650N JANJO TAFFY GDM JFK JOANI VILLS NALES TYI BLAMO HASET MULLS CHS DADES KTPA10.3 hrs10 hrs147,969 lb-HIDDEN-
2021-02-15BAW710EGCC EGKK EGCC D057A D186X POL28 POL33 LISTO HON KIDLI MID TUFOZ HOLLY WILLO TIMBA RW26L1.1 hrs0.7 hrs14,699 lb-HIDDEN-
2021-02-11BAW211EGGK EGCC EGKK LAM WELIN AKUPA TIMPO ELVOS TNT EGCC1.2 hrs0.8 hrs14,202 lb-HIDDEN-